createdAt,value
2018-11-06T00:02:14.469Z,48.60
2018-11-06T00:04:50.011Z,52.73
2018-11-06T00:07:20.760Z,46.70
2018-11-06T00:09:51.280Z,54.97
2018-11-06T00:12:21.803Z,54.13
2018-11-06T00:14:52.399Z,54.87
2018-11-06T00:17:23.015Z,56.87
2018-11-06T00:22:33.650Z,48.53
2018-11-06T00:25:04.208Z,45.33
2018-11-06T00:27:34.729Z,45.83
2018-11-06T00:30:05.430Z,45.27
2018-11-06T00:32:36.045Z,48.77
2018-11-06T00:35:07.171Z,46.47
2018-11-06T00:37:37.698Z,45.57
2018-11-06T00:40:08.655Z,47.13
2018-11-06T00:42:39.398Z,51.10
2018-11-06T00:45:15.251Z,46.60
2018-11-06T00:47:45.801Z,41.60
2018-11-06T00:50:16.289Z,42.23
2018-11-06T00:52:46.984Z,45.03
2018-11-06T00:55:17.729Z,43.07
2018-11-06T00:57:48.164Z,42.27
2018-11-06T01:00:19.797Z,51.97
2018-11-06T01:02:50.469Z,45.10
2018-11-06T01:05:21.058Z,42.67
2018-11-06T01:07:51.777Z,45.10
2018-11-06T01:10:22.218Z,40.60
2018-11-06T01:12:52.686Z,44.17
2018-11-06T01:15:23.239Z,48.17
2018-11-06T01:17:53.744Z,43.10
2018-11-06T01:20:24.555Z,41.63
2018-11-06T01:22:54.984Z,44.93
2018-11-06T01:25:25.594Z,51.17
2018-11-06T01:27:56.082Z,47.33
2018-11-06T01:30:26.501Z,46.60
2018-11-06T01:32:57.015Z,46.37
2018-11-06T01:35:27.498Z,47.03
2018-11-06T01:37:58.085Z,51.93
2018-11-06T01:40:28.905Z,46.47
2018-11-06T01:42:59.394Z,51.53
2018-11-06T01:45:29.963Z,51.20
2018-11-06T01:48:00.424Z,42.37
2018-11-06T01:50:30.956Z,44.10
2018-11-06T01:53:01.467Z,51.83
2018-11-06T01:55:32.000Z,45.97
2018-11-06T01:58:02.565Z,55.43
2018-11-06T02:00:34.245Z,46.13
2018-11-06T02:03:04.714Z,49.43
2018-11-06T02:05:35.211Z,51.00
2018-11-06T02:08:05.962Z,49.07
2018-11-06T02:10:37.508Z,54.30
2018-11-06T02:13:08.279Z,49.37
2018-11-06T02:15:38.809Z,47.70
2018-11-06T02:18:09.338Z,51.70
2018-11-06T02:20:39.931Z,52.17
2018-11-06T02:23:10.455Z,49.00
2018-11-06T02:25:40.837Z,54.00
2018-11-06T02:28:11.302Z,52.47
2018-11-06T02:30:41.823Z,61.37
2018-11-06T02:33:12.496Z,59.53
2018-11-06T02:35:43.267Z,66.60
2018-11-06T02:38:13.765Z,56.77
2018-11-06T02:40:44.465Z,64.90
2018-11-06T02:43:15.012Z,68.20
2018-11-06T02:45:45.570Z,66.27
2018-11-06T02:48:16.119Z,70.97
2018-11-06T02:50:46.583Z,59.33
2018-11-06T02:53:17.213Z,67.77
2018-11-06T02:55:47.697Z,61.17
2018-11-06T02:58:18.139Z,58.20
2018-11-06T03:00:48.693Z,53.70
2018-11-06T03:03:19.211Z,56.37
2018-11-06T03:05:50.602Z,56.60
2018-11-06T03:08:21.169Z,63.50
2018-11-06T03:10:52.230Z,72.50
2018-11-06T03:13:22.723Z,71.10
2018-11-06T03:15:53.202Z,68.50
2018-11-06T03:18:23.669Z,70.27
2018-11-06T03:20:54.233Z,68.47
2018-11-06T03:23:24.699Z,72.73
2018-11-06T03:25:55.217Z,70.37
2018-11-06T03:28:25.683Z,77.20
2018-11-06T03:30:56.150Z,79.63
2018-11-06T03:33:26.677Z,82.47
2018-11-06T03:35:57.154Z,75.50
2018-11-06T03:38:27.610Z,76.27
2018-11-06T03:40:58.567Z,82.73
2018-11-06T03:43:29.254Z,83.50
2018-11-06T03:45:59.765Z,86.80
2018-11-06T03:48:30.232Z,88.23
2018-11-06T03:53:40.683Z,83.13
2018-11-06T03:56:11.241Z,79.60
2018-11-06T03:58:42.267Z,86.97
2018-11-06T04:01:12.852Z,78.43
2018-11-06T04:03:44.415Z,71.23
2018-11-06T04:06:14.945Z,84.70
2018-11-06T04:08:45.561Z,73.33
2018-11-06T04:11:16.377Z,80.33
2018-11-06T04:16:27.737Z,96.17
2018-11-06T04:18:58.263Z,89.20
2018-11-06T04:21:37.263Z,95.27
2018-11-06T04:24:13.533Z,129.77
2018-11-06T04:26:45.836Z,88.63
2018-11-06T04:29:16.359Z,86.47
2018-11-06T04:31:46.890Z,109.80
2018-11-06T04:34:17.586Z,101.93
2018-11-06T04:36:48.085Z,144.63
2018-11-06T04:39:18.590Z,80.90
2018-11-06T04:41:49.263Z,83.73
2018-11-06T04:44:19.805Z,71.20
2018-11-06T04:46:50.281Z,86.10
2018-11-06T04:49:21.402Z,72.70
2018-11-06T04:51:51.880Z,71.17
2018-11-06T04:54:22.461Z,74.20
2018-11-06T04:56:53.017Z,78.37
2018-11-06T04:59:23.514Z,65.93
2018-11-06T05:01:54.034Z,56.83
2018-11-06T05:04:24.584Z,60.40
2018-11-06T05:06:55.113Z,62.77
2018-11-06T05:09:25.760Z,60.97
2018-11-06T05:11:57.233Z,59.93
2018-11-06T05:14:27.872Z,49.93
2018-11-06T05:16:58.404Z,46.47
2018-11-06T05:19:28.885Z,44.77
2018-11-06T05:21:59.498Z,42.90
2018-11-06T05:24:29.973Z,43.97
2018-11-06T05:27:00.580Z,54.13
2018-11-06T05:29:31.153Z,46.33
2018-11-06T05:32:01.655Z,52.77
2018-11-06T05:34:32.325Z,74.07
2018-11-06T05:37:02.809Z,43.60
2018-11-06T05:39:33.277Z,43.17
2018-11-06T05:42:03.898Z,42.83
2018-11-06T05:44:35.308Z,46.73
2018-11-06T05:47:05.862Z,42.87
2018-11-06T05:49:36.316Z,41.03
2018-11-06T05:52:07.093Z,37.87
2018-11-06T05:54:38.607Z,39.83
2018-11-06T05:57:09.195Z,44.17
2018-11-06T05:59:39.929Z,52.00
2018-11-06T06:02:10.433Z,39.73
2018-11-06T06:04:41.070Z,33.43
2018-11-06T06:07:11.621Z,36.87
2018-11-06T06:09:42.293Z,32.57
2018-11-06T06:12:13.367Z,35.93
2018-11-06T06:14:44.014Z,36.00
2018-11-06T06:17:15.190Z,38.93
2018-11-06T06:19:45.638Z,32.93
2018-11-06T06:22:16.186Z,41.77
2018-11-06T06:24:46.797Z,35.37
2018-11-06T06:27:17.333Z,33.73
2018-11-06T06:29:47.898Z,34.40
2018-11-06T06:32:18.362Z,39.10
2018-11-06T06:34:49.056Z,36.73
2018-11-06T06:37:19.686Z,37.00
2018-11-06T06:39:50.283Z,43.40
2018-11-06T06:42:20.869Z,32.30
2018-11-06T06:44:51.405Z,35.57
2018-11-06T06:47:21.971Z,38.13
2018-11-06T06:49:52.604Z,36.80
2018-11-06T06:52:23.128Z,37.17
2018-11-06T06:54:53.926Z,33.17
2018-11-06T06:57:24.349Z,31.27
2018-11-06T06:59:54.924Z,30.93
2018-11-06T07:02:25.495Z,38.10
2018-11-06T07:04:56.044Z,35.80
2018-11-06T07:07:27.607Z,32.30
2018-11-06T07:09:58.221Z,35.23
2018-11-06T07:12:28.944Z,37.70
2018-11-06T07:15:00.457Z,32.70
2018-11-06T07:17:30.981Z,34.40
2018-11-06T07:20:01.729Z,33.07
2018-11-06T07:22:32.210Z,39.13
2018-11-06T07:25:02.759Z,32.80
2018-11-06T07:27:33.353Z,34.47
2018-11-06T07:30:03.772Z,35.03
2018-11-06T07:32:35.147Z,41.97
2018-11-06T07:35:06.696Z,37.33
2018-11-06T07:37:37.291Z,34.07
2018-11-06T07:40:09.323Z,34.63
2018-11-06T07:42:40.569Z,31.10
2018-11-06T07:45:16.245Z,35.43
2018-11-06T07:47:46.763Z,37.20
2018-11-06T07:50:17.309Z,30.53
2018-11-06T07:52:47.816Z,32.33
2018-11-06T07:55:19.604Z,28.67
2018-11-06T07:57:50.189Z,30.83
2018-11-06T08:00:23.244Z,36.63
2018-11-06T08:02:53.728Z,24.53
2018-11-06T08:05:30.482Z,35.93
2018-11-06T08:08:03.084Z,30.97
2018-11-06T08:10:33.669Z,30.67
2018-11-06T08:13:05.253Z,26.53
2018-11-06T08:15:35.946Z,30.30
2018-11-06T08:18:06.585Z,25.00
2018-11-06T08:20:37.103Z,27.80
2018-11-06T08:23:07.732Z,27.53
2018-11-06T08:25:38.183Z,25.73
2018-11-06T08:28:08.786Z,31.73
2018-11-06T08:30:39.433Z,25.50
2018-11-06T08:33:09.933Z,33.97
2018-11-06T08:35:40.470Z,31.17
2018-11-06T08:38:12.826Z,23.73
2018-11-06T08:40:43.240Z,30.83
2018-11-06T08:43:13.966Z,23.93
2018-11-06T08:45:44.437Z,24.37
2018-11-06T08:48:14.974Z,30.73
2018-11-06T08:50:45.542Z,23.47
2018-11-06T08:53:16.075Z,25.90
2018-11-06T08:55:46.869Z,23.70
2018-11-06T08:58:17.336Z,27.00
2018-11-06T09:00:47.880Z,21.93
2018-11-06T09:03:18.444Z,27.87
2018-11-06T09:05:48.900Z,20.53
2018-11-06T09:08:19.388Z,20.63
2018-11-06T09:10:49.913Z,19.50
2018-11-06T09:13:20.434Z,19.77
2018-11-06T09:15:50.976Z,18.03
2018-11-06T09:21:01.418Z,15.07
2018-11-06T09:23:31.912Z,16.23
2018-11-06T09:26:02.495Z,18.30
2018-11-06T09:28:33.022Z,16.73
2018-11-06T09:31:03.711Z,20.90
2018-11-06T09:33:34.210Z,16.93
2018-11-06T09:36:04.703Z,15.03
2018-11-06T09:38:35.349Z,15.07
2018-11-06T09:41:05.983Z,14.43
2018-11-06T09:43:36.554Z,16.30
2018-11-06T09:46:07.183Z,9.40
2018-11-06T09:48:37.712Z,14.17
2018-11-06T09:51:08.229Z,12.50
2018-11-06T09:53:38.845Z,11.67
2018-11-06T09:56:09.468Z,14.10
2018-11-06T09:58:39.997Z,12.47
2018-11-06T10:01:10.677Z,11.80
2018-11-06T10:03:41.209Z,11.63
2018-11-06T10:06:11.648Z,7.40
2018-11-06T10:08:42.350Z,8.70
2018-11-06T10:11:12.967Z,9.50
2018-11-06T10:13:43.439Z,13.63
2018-11-06T10:16:13.962Z,9.93
2018-11-06T10:18:44.861Z,8.17
2018-11-06T10:21:15.258Z,10.43
2018-11-06T10:23:46.770Z,11.23
2018-11-06T10:26:17.276Z,7.63
2018-11-06T10:28:47.848Z,7.50
2018-11-06T10:31:18.350Z,8.77
2018-11-06T10:33:48.780Z,8.77
2018-11-06T10:36:19.390Z,9.50
2018-11-06T10:38:50.268Z,5.00
2018-11-06T10:41:20.824Z,6.77
2018-11-06T10:43:51.338Z,5.20
2018-11-06T10:46:21.953Z,7.20
2018-11-06T10:48:52.625Z,6.43
2018-11-06T10:51:23.157Z,8.17
2018-11-06T10:53:53.688Z,6.93
2018-11-06T10:56:24.120Z,7.60
2018-11-06T10:58:54.706Z,4.87
2018-11-06T11:01:29.894Z,12.23
2018-11-06T11:04:05.271Z,14.87
2018-11-06T11:06:35.797Z,7.57
2018-11-06T11:09:08.352Z,6.87
2018-11-06T11:11:38.898Z,9.83
2018-11-06T11:14:09.381Z,7.77
2018-11-06T11:16:41.113Z,7.67
2018-11-06T11:19:11.837Z,8.07
2018-11-06T11:21:42.535Z,5.03
2018-11-06T11:24:13.139Z,6.10
2018-11-06T11:26:43.616Z,9.17
2018-11-06T11:29:14.187Z,6.20
2018-11-06T11:31:44.819Z,14.40
2018-11-06T11:34:15.365Z,9.23
2018-11-06T11:36:46.045Z,8.40
2018-11-06T11:39:16.850Z,5.17
2018-11-06T11:41:47.446Z,6.07
2018-11-06T11:44:18.090Z,10.00
2018-11-06T11:46:48.773Z,7.20
2018-11-06T11:49:19.471Z,10.93
2018-11-06T11:51:50.031Z,7.13
2018-11-06T11:54:20.566Z,7.57
2018-11-06T11:56:51.382Z,8.93
2018-11-06T11:59:22.124Z,8.83
2018-11-06T12:01:52.755Z,7.60
2018-11-06T12:04:23.582Z,11.90
2018-11-06T12:06:54.175Z,8.00
2018-11-06T12:09:24.740Z,8.53
2018-11-06T12:11:55.311Z,7.57
2018-11-06T12:14:26.307Z,8.63
2018-11-06T12:16:56.833Z,6.17
2018-11-06T12:19:27.649Z,10.63
2018-11-06T12:21:58.212Z,5.30
2018-11-06T12:24:28.900Z,6.70
2018-11-06T12:26:59.474Z,5.97
2018-11-06T12:29:30.098Z,11.80
2018-11-06T12:32:00.709Z,4.37
2018-11-06T12:34:31.261Z,7.13
2018-11-06T12:37:01.888Z,6.93
2018-11-06T12:39:32.664Z,5.20
2018-11-06T12:42:03.168Z,6.43
2018-11-06T12:44:33.659Z,4.80
2018-11-06T12:47:04.252Z,6.43
2018-11-06T12:49:34.918Z,6.47
2018-11-06T12:52:05.576Z,6.63
2018-11-06T12:54:36.018Z,6.87
2018-11-06T12:57:06.652Z,5.37
2018-11-06T12:59:37.138Z,5.77
2018-11-06T13:02:07.849Z,5.13
2018-11-06T13:04:38.332Z,4.03
2018-11-06T13:07:08.765Z,4.50
2018-11-06T13:09:39.272Z,8.60
2018-11-06T13:12:09.812Z,5.03
2018-11-06T13:14:40.341Z,4.83
2018-11-06T13:17:11.055Z,7.87
2018-11-06T13:19:41.757Z,5.63
2018-11-06T13:22:12.261Z,6.07
2018-11-06T13:24:42.653Z,4.60
2018-11-06T13:27:13.244Z,9.30
2018-11-06T13:29:43.763Z,9.73
2018-11-06T13:32:14.467Z,7.77
2018-11-06T13:34:45.849Z,5.33
2018-11-06T13:37:16.363Z,5.20
2018-11-06T13:39:47.233Z,7.67
2018-11-06T13:42:17.937Z,16.97
2018-11-06T13:44:48.725Z,8.87
2018-11-06T13:47:19.309Z,11.43
2018-11-06T13:49:49.798Z,9.63
2018-11-06T13:52:20.498Z,12.30
2018-11-06T13:54:51.091Z,11.50
2018-11-06T13:57:21.982Z,10.53
2018-11-06T13:59:52.701Z,10.27
2018-11-06T14:02:23.135Z,10.93
2018-11-06T14:04:53.630Z,9.50
2018-11-06T14:07:24.280Z,8.37
2018-11-06T14:09:54.939Z,15.37
2018-11-06T14:12:25.507Z,8.73
2018-11-06T14:14:55.936Z,11.50
2018-11-06T14:17:26.534Z,9.57
2018-11-06T14:19:57.293Z,11.77
2018-11-06T14:22:27.725Z,11.33
2018-11-06T14:24:58.332Z,11.17
2018-11-06T14:27:29.390Z,11.33
2018-11-06T14:30:00.233Z,11.87
2018-11-06T14:32:30.814Z,11.70
2018-11-06T14:35:01.368Z,12.43
2018-11-06T14:37:32.123Z,15.07
2018-11-06T14:40:03.017Z,16.23
2018-11-06T14:42:33.628Z,12.03
2018-11-06T14:45:04.225Z,13.67
2018-11-06T14:47:34.734Z,12.03
2018-11-06T14:50:06.353Z,11.37
2018-11-06T14:52:37.256Z,12.33
2018-11-06T14:55:10.990Z,12.47
2018-11-06T14:57:41.653Z,9.13
2018-11-06T15:00:14.858Z,9.00
2018-11-06T15:02:47.040Z,8.53
2018-11-06T15:05:18.390Z,12.27
2018-11-06T15:07:48.830Z,10.70
2018-11-06T15:10:19.574Z,13.30
2018-11-06T15:12:50.130Z,12.23
2018-11-06T15:15:20.642Z,11.93
2018-11-06T15:17:51.191Z,11.20
2018-11-06T15:20:22.840Z,12.90
2018-11-06T15:22:53.338Z,15.50
2018-11-06T15:25:23.874Z,11.63
2018-11-06T15:27:54.343Z,10.70
2018-11-06T15:30:24.945Z,10.80
2018-11-06T15:32:55.446Z,9.03
2018-11-06T15:35:26.070Z,12.13
2018-11-06T15:37:56.504Z,10.13
2018-11-06T15:40:27.324Z,8.70
2018-11-06T15:42:57.815Z,10.93
2018-11-06T15:45:28.439Z,10.10
2018-11-06T15:47:58.917Z,9.70
2018-11-06T15:50:30.489Z,9.63
2018-11-06T15:53:01.073Z,13.50
2018-11-06T15:55:31.664Z,11.57
2018-11-06T15:58:02.264Z,12.47
2018-11-06T16:00:33.103Z,11.07
2018-11-06T16:03:03.619Z,11.43
2018-11-06T16:05:34.158Z,9.83
2018-11-06T16:08:04.743Z,12.63
2018-11-06T16:10:35.210Z,19.43
2018-11-06T16:13:06.056Z,13.83
2018-11-06T16:15:36.654Z,12.07
2018-11-06T16:18:07.314Z,11.90
2018-11-06T16:20:39.012Z,12.57
2018-11-06T16:23:09.514Z,12.07
2018-11-06T16:25:40.072Z,14.43
2018-11-06T16:28:10.562Z,12.17
2018-11-06T16:30:41.076Z,11.67
2018-11-06T16:33:11.642Z,19.73
2018-11-06T16:35:42.167Z,11.60
2018-11-06T16:38:12.596Z,14.10
2018-11-06T16:40:43.414Z,14.00
2018-11-06T16:43:13.944Z,12.23
2018-11-06T16:45:44.492Z,9.03
2018-11-06T16:48:15.043Z,8.40
2018-11-06T16:50:45.561Z,13.97
2018-11-06T16:53:16.090Z,8.57
2018-11-06T16:55:46.590Z,12.73
2018-11-06T16:58:17.175Z,13.27
2018-11-06T17:00:47.984Z,12.57
2018-11-06T17:03:18.392Z,8.97
2018-11-06T17:05:49.067Z,9.40
2018-11-06T17:08:19.572Z,7.80
2018-11-06T17:10:50.094Z,10.40
2018-11-06T17:13:20.552Z,13.33
2018-11-06T17:15:51.181Z,9.90
2018-11-06T17:18:21.583Z,16.80
2018-11-06T17:20:52.996Z,10.57
2018-11-06T17:23:23.459Z,15.73
2018-11-06T17:25:53.903Z,9.63
2018-11-06T17:28:24.361Z,11.40
2018-11-06T17:30:54.820Z,15.13
2018-11-06T17:33:25.331Z,16.30
2018-11-06T17:35:55.954Z,15.80
2018-11-06T17:38:26.566Z,16.70
2018-11-06T17:40:57.197Z,15.70
2018-11-06T17:43:27.848Z,17.43
2018-11-06T17:45:58.413Z,15.23
2018-11-06T17:48:28.961Z,18.00
2018-11-06T17:50:59.485Z,14.07
2018-11-06T17:53:30.003Z,13.03
2018-11-06T17:56:00.449Z,14.83
2018-11-06T17:58:30.912Z,14.80
2018-11-06T18:01:01.829Z,14.63
2018-11-06T18:03:32.471Z,12.97
2018-11-06T18:06:02.983Z,18.10
2018-11-06T18:08:34.402Z,17.87
2018-11-06T18:11:04.873Z,13.30
2018-11-06T18:13:35.322Z,15.03
2018-11-06T18:16:06.150Z,12.93
2018-11-06T18:18:36.583Z,22.67
2018-11-06T18:21:07.408Z,12.40
2018-11-06T18:23:37.902Z,13.80
2018-11-06T18:26:08.564Z,12.90
2018-11-06T18:28:39.042Z,15.50
2018-11-06T18:31:09.488Z,9.47
2018-11-06T18:33:39.989Z,11.90
2018-11-06T18:36:10.563Z,13.87
2018-11-06T18:38:40.999Z,11.07
2018-11-06T18:41:11.876Z,11.10
2018-11-06T18:43:42.493Z,9.60
2018-11-06T18:46:13.115Z,8.80
2018-11-06T18:48:43.649Z,11.40
2018-11-06T18:51:14.197Z,9.47
2018-11-06T18:53:44.658Z,6.57
2018-11-06T18:56:15.133Z,7.13
2018-11-06T18:58:45.666Z,7.50
2018-11-06T19:01:16.230Z,10.23
2018-11-06T19:03:46.764Z,9.50
2018-11-06T19:06:17.319Z,8.47
2018-11-06T19:08:47.845Z,14.33
2018-11-06T19:11:18.360Z,8.83
2018-11-06T19:13:48.940Z,5.37
2018-11-06T19:16:19.493Z,9.30
2018-11-06T19:18:49.939Z,7.07
2018-11-06T19:21:20.748Z,7.70
2018-11-06T19:23:51.308Z,11.77
2018-11-06T19:26:21.789Z,6.73
2018-11-06T19:28:52.472Z,11.43
2018-11-06T19:31:23.044Z,8.03
2018-11-06T19:33:53.611Z,9.10
2018-11-06T19:36:24.152Z,10.77
2018-11-06T19:38:54.619Z,12.07
2018-11-06T19:41:25.425Z,9.00
2018-11-06T19:43:55.874Z,13.17
2018-11-06T19:46:26.373Z,9.07
2018-11-06T19:48:57.525Z,11.03
2018-11-06T19:51:28.076Z,10.70
2018-11-06T19:53:58.653Z,16.27
2018-11-06T19:56:29.330Z,12.57
2018-11-06T19:58:59.741Z,9.83
2018-11-06T20:01:30.569Z,9.90
2018-11-06T20:04:01.080Z,9.43
2018-11-06T20:06:31.540Z,9.87
2018-11-06T20:09:02.105Z,11.77
2018-11-06T20:11:32.611Z,9.73
2018-11-06T20:14:03.293Z,11.50
2018-11-06T20:16:33.955Z,11.43
2018-11-06T20:19:04.654Z,16.30
2018-11-06T20:21:35.395Z,14.97
2018-11-06T20:24:06.065Z,9.47
2018-11-06T20:26:36.617Z,10.20
2018-11-06T20:29:07.108Z,8.70
2018-11-06T20:31:38.033Z,10.67
2018-11-06T20:34:08.622Z,11.33
2018-11-06T20:36:39.029Z,9.90
2018-11-06T20:39:10.664Z,12.77
2018-11-06T20:41:41.459Z,10.57
2018-11-06T20:44:11.928Z,9.13
2018-11-06T20:46:42.489Z,12.60
2018-11-06T20:49:13.107Z,16.30
2018-11-06T20:51:43.600Z,19.20
2018-11-06T20:54:14.094Z,10.13
2018-11-06T20:56:44.593Z,9.70
2018-11-06T20:59:15.076Z,12.50
2018-11-06T21:01:45.950Z,6.07
2018-11-06T21:04:16.577Z,7.23
2018-11-06T21:06:47.066Z,11.47
2018-11-06T21:09:17.516Z,7.07
2018-11-06T21:11:48.008Z,9.83
2018-11-06T21:14:19.513Z,7.70
2018-11-06T21:16:49.924Z,7.03
2018-11-06T21:19:20.407Z,7.77
2018-11-06T21:21:51.054Z,6.07
2018-11-06T21:24:21.545Z,6.57
2018-11-06T21:26:52.128Z,5.70
2018-11-06T21:29:22.623Z,7.87
2018-11-06T21:31:53.094Z,5.37
2018-11-06T21:34:23.599Z,4.37
2018-11-06T21:36:54.117Z,4.27
2018-11-06T21:39:24.544Z,7.50
2018-11-06T21:41:55.247Z,5.13
2018-11-06T21:44:25.957Z,6.20
2018-11-06T21:46:56.631Z,4.37
2018-11-06T21:49:27.257Z,7.30
2018-11-06T21:51:57.743Z,5.87
2018-11-06T21:54:28.229Z,5.33
2018-11-06T21:56:58.804Z,7.20
2018-11-06T21:59:29.311Z,4.93
2018-11-06T22:02:00.178Z,3.73
2018-11-06T22:04:30.649Z,9.70
2018-11-06T22:07:01.104Z,5.20
2018-11-06T22:09:31.753Z,8.23
2018-11-06T22:12:02.282Z,4.60
2018-11-06T22:14:32.846Z,6.60
2018-11-06T22:17:03.360Z,8.10
2018-11-06T22:19:33.925Z,6.63
2018-11-06T22:22:04.799Z,5.67
2018-11-06T22:24:35.309Z,6.43
2018-11-06T22:27:05.858Z,5.93
2018-11-06T22:29:36.368Z,6.37
2018-11-06T22:32:07.254Z,3.87
2018-11-06T22:34:37.649Z,7.50
2018-11-06T22:37:08.249Z,4.90
2018-11-06T22:39:38.681Z,7.40
2018-11-06T22:42:09.247Z,6.73
2018-11-06T22:44:39.704Z,7.30
2018-11-06T22:47:10.180Z,6.33
2018-11-06T22:49:40.678Z,4.03
2018-11-06T22:52:11.239Z,3.60
2018-11-06T22:54:41.712Z,3.23
2018-11-06T22:57:12.249Z,3.50
2018-11-06T22:59:42.773Z,5.87
2018-11-06T23:02:13.295Z,4.43
2018-11-06T23:04:43.904Z,3.37
2018-11-06T23:07:19.208Z,5.27
2018-11-06T23:09:49.749Z,4.43
2018-11-06T23:12:20.283Z,7.73
2018-11-06T23:14:51.012Z,6.67
2018-11-06T23:17:21.511Z,3.93
2018-11-06T23:19:52.051Z,3.43
2018-11-06T23:22:22.690Z,8.57
2018-11-06T23:24:53.281Z,3.17
2018-11-06T23:27:24.011Z,7.43
2018-11-06T23:29:54.668Z,3.47
2018-11-06T23:32:25.226Z,3.30
2018-11-06T23:34:56.296Z,3.27
2018-11-06T23:37:26.849Z,5.00
2018-11-06T23:39:57.306Z,4.33
2018-11-06T23:42:27.860Z,4.37
2018-11-06T23:44:59.126Z,2.50
2018-11-06T23:47:29.552Z,2.47
2018-11-06T23:50:00.028Z,4.47
2018-11-06T23:52:30.728Z,3.50
2018-11-06T23:55:01.311Z,2.60
2018-11-06T23:57:31.829Z,5.57
